Time;durP1;ratioP1;P1;durP2;ratioP2;P2;SDS_P1;SDS_P2;PMS_P1;PMS_P2;Temp;Humidity;BMP_temperature;BMP_pressure;BME280_temperature;BME280_humidity;BME280_pressure;Samples;Min_cycle;Max_cycle;Signal;HPM_P1;HPM_P2
2022/05/23 00:01:36;;;;;;;5.03;2.35;;;;;;;11.78;84.31;100137.06;5037339;28;20086;-72
2022/05/23 00:04:02;;;;;;;3.35;2.53;;;;;;;11.76;84.33;100139.59;5038481;28;20041;-73
2022/05/23 00:06:27;;;;;;;3.47;2.58;;;;;;;11.72;84.86;100141.03;5038386;28;20036;-73
2022/05/23 00:08:55;;;;;;;3.47;2.80;;;;;;;11.67;84.96;100131.09;5038141;28;20033;-73
2022/05/23 00:11:22;;;;;;;5.75;3.17;;;;;;;11.65;85.03;100145.84;5038515;28;20108;-73
2022/05/23 00:13:48;;;;;;;4.45;3.28;;;;;;;11.61;85.10;100147.34;5005392;28;20122;-73
2022/05/23 00:16:21;;;;;;;3.83;2.60;;;;;;;11.38;86.25;100114.75;5038102;28;20135;-74
2022/05/23 00:18:48;;;;;;;3.55;3.25;;;;;;;11.53;85.63;100143.31;5021712;28;20056;-73
2022/05/23 00:21:15;;;;;;;5.20;3.10;;;;;;;11.50;87.18;100142.19;5037962;28;20071;-73
2022/05/23 00:23:55;;;;;;;4.72;3.20;;;;;;;11.48;86.36;100141.91;5021567;28;20424;-73
2022/05/23 00:26:29;;;;;;;4.70;3.42;;;;;;;11.43;86.60;100139.75;5037991;28;20363;-73
2022/05/23 00:28:54;;;;;;;3.15;2.85;;;;;;;11.41;85.79;100150.06;5055947;28;20021;-73
2022/05/23 00:31:20;;;;;;;4.38;2.85;;;;;;;11.36;85.89;100145.03;5037809;28;20105;-72
2022/05/23 00:36:32;;;;;;;5.65;3.78;;;;;;;11.21;86.24;100148.63;5055756;28;20036;-73
2022/05/23 00:38:59;;;;;;;6.32;2.80;;;;;;;11.17;86.75;100152.94;5021135;28;20033;-73
2022/05/23 00:44:31;;;;;;;5.28;2.83;;;;;;;11.02;87.50;100150.06;5055602;28;20030;-72
2022/05/23 00:47:04;;;;;;;3.88;2.75;;;;;;;10.94;87.83;100148.84;5035440;28;20088;-73
2022/05/23 00:49:33;;;;;;;3.15;2.83;;;;;;;10.86;86.38;100144.78;5020867;28;20082;-72
2022/05/23 00:52:06;;;;;;;5.38;2.85;;;;;;;10.88;86.77;100156.50;5004714;28;20037;-72
2022/05/23 00:54:36;;;;;;;4.82;2.70;;;;;;;10.82;87.31;100153.50;5020898;28;20051;-73
2022/05/23 00:57:18;;;;;;;7.50;3.20;;;;;;;10.76;87.42;100151.81;5055415;28;20029;-73
2022/05/23 00:59:44;;;;;;;;;;;;;;;10.70;88.92;100145.22;5054788;28;20029;-73
2022/05/23 01:02:11;;;;;;;3.53;3.22;;;;;;;10.63;88.76;100148.41;5037351;28;19967;-73
2022/05/23 01:04:37;;;;;;;6.60;3.63;;;;;;;10.54;89.29;100149.25;5037217;28;20056;-73
2022/05/23 01:07:05;;;;;;;4.13;3.30;;;;;;;10.48;90.06;100136.94;5020671;28;20067;-73
2022/05/23 01:09:45;;;;;;;7.13;3.55;;;;;;;10.43;89.63;100133.97;5037579;28;20485;-73
2022/05/23 01:12:11;;;;;;;9.65;3.70;;;;;;;10.39;90.17;100128.44;5055117;28;20469;-73
2022/05/23 01:15:12;;;;;;;6.10;3.58;;;;;;;10.42;90.72;100138.88;5036939;28;20504;-72
2022/05/23 01:17:39;;;;;;;4.63;3.88;;;;;;;10.32;90.42;100120.25;5034918;28;20170;-74
2022/05/23 01:20:07;;;;;;;5.82;4.05;;;;;;;10.34;90.31;100129.91;5037195;28;20052;-72
2022/05/23 01:22:52;;;;;;;6.97;4.35;;;;;;;10.38;90.29;100143.94;5054999;28;20020;-73
2022/05/23 01:25:26;;;;;;;5.40;3.92;;;;;;;10.34;91.09;100137.66;5054746;28;20485;-72
2022/05/23 01:27:53;;;;;;;6.05;4.10;;;;;;;10.31;91.36;100142.22;5036760;28;20029;-72
2022/05/23 01:30:20;;;;;;;4.43;3.53;;;;;;;10.21;91.62;100122.84;5020676;28;20032;-72
2022/05/23 01:32:46;;;;;;;6.20;4.40;;;;;;;10.30;91.36;100135.00;5054317;28;20056;-72
2022/05/23 01:35:14;;;;;;;5.18;3.95;;;;;;;10.29;91.35;100139.09;5036554;28;20592;-72
2022/05/23 01:37:40;;;;;;;6.30;4.05;;;;;;;10.25;91.05;100129.16;5054529;28;20035;-73
2022/05/23 01:40:09;;;;;;;5.78;4.13;;;;;;;10.26;91.35;100131.50;5036394;28;20044;-73
2022/05/23 01:42:36;;;;;;;5.18;4.00;;;;;;;10.25;91.53;100126.31;5020084;28;20494;-72
2022/05/23 01:45:01;;;;;;;8.00;4.72;;;;;;;10.24;91.47;100128.38;5019977;28;20025;-73
2022/05/23 01:47:28;;;;;;;8.88;4.50;;;;;;;10.16;90.87;100117.81;5036600;28;20059;-73
2022/05/23 01:49:54;;;;;;;6.28;4.30;;;;;;;10.15;91.56;100117.00;5036718;28;20040;-73
2022/05/23 01:52:20;;;;;;;6.47;3.83;;;;;;;10.13;91.47;100122.38;5036340;28;20094;-73
2022/05/23 01:54:46;;;;;;;8.55;4.65;;;;;;;10.11;91.76;100121.28;5019731;28;20036;-73
2022/05/23 01:57:20;;;;;;;5.90;4.00;;;;;;;10.07;91.29;100127.13;5019576;28;20462;-72
2022/05/23 02:02:31;;;;;;;7.80;4.88;;;;;;;9.95;91.84;100114.69;5039045;28;20028;-73
2022/05/23 02:04:58;;;;;;;4.72;4.05;;;;;;;9.93;93.21;100110.75;5020465;28;20350;-73
2022/05/23 02:07:24;;;;;;;6.47;4.07;;;;;;;9.87;93.64;100106.97;5053896;28;20020;-72
2022/05/23 02:10:05;;;;;;;5.53;4.13;;;;;;;9.83;93.17;100094.97;5019328;28;20035;-74
2022/05/23 02:12:31;;;;;;;12.13;4.70;;;;;;;9.83;93.19;100098.59;5053638;28;20033;-72
2022/05/23 02:14:58;;;;;;;7.30;4.75;;;;;;;9.85;93.37;100100.97;5019587;28;20033;-71
2022/05/23 02:17:25;;;;;;;7.63;5.10;;;;;;;9.77;93.32;100085.50;5053875;28;20035;-73
2022/05/23 02:19:53;;;;;;;7.18;4.88;;;;;;;9.78;93.47;100095.63;5035695;28;20032;-72
2022/05/23 02:22:19;;;;;;;7.72;4.68;;;;;;;9.75;93.76;100093.75;5053553;28;20109;-72
2022/05/23 02:24:46;;;;;;;7.20;4.53;;;;;;;9.71;94.57;100090.28;5053239;28;20147;-73
2022/05/23 02:27:13;;;;;;;8.13;4.68;;;;;;;9.74;94.95;100095.00;5053584;28;20049;-73
2022/05/23 02:29:46;;;;;;;7.90;4.85;;;;;;;9.77;94.32;100099.72;5053679;28;20029;-73
2022/05/23 02:32:12;;;;;;;6.00;4.68;;;;;;;9.77;93.26;100106.22;5053076;28;20041;-73
2022/05/23 02:34:39;;;;;;;7.18;4.85;;;;;;;9.75;93.59;100107.97;5053254;28;20032;-73
2022/05/23 02:37:06;;;;;;;8.70;4.78;;;;;;;9.71;92.54;100102.44;5019691;28;20386;-72
2022/05/23 02:39:39;;;;;;;7.03;4.57;;;;;;;9.72;93.53;100100.41;5053621;28;20029;-73
2022/05/23 02:42:07;;;;;;;7.88;5.03;;;;;;;9.69;94.01;100095.66;5019049;28;20488;-72
2022/05/23 02:44:35;;;;;;;6.55;4.93;;;;;;;9.69;93.56;100093.59;5035633;28;20043;-73
2022/05/23 02:47:02;;;;;;;8.00;4.72;;;;;;;9.67;94.04;100098.19;5035475;28;20466;-73
2022/05/23 02:49:30;;;;;;;5.82;4.25;;;;;;;9.68;93.46;100094.88;5035745;28;20123;-73
2022/05/23 02:51:56;;;;;;;6.35;4.65;;;;;;;9.64;93.54;100094.25;5053469;28;20029;-74
2022/05/23 02:54:22;;;;;;;7.03;4.68;;;;;;;9.64;94.59;100097.09;5035644;28;20017;-72
2022/05/23 02:56:52;;;;;;;8.32;5.25;;;;;;;9.66;94.08;100099.47;5034708;28;20033;-73
2022/05/23 02:59:17;;;;;;;6.68;5.07;;;;;;;9.68;93.75;100089.16;5036481;28;20029;-73
2022/05/23 03:04:28;;;;;;;7.93;4.93;;;;;;;9.72;92.93;100094.72;5038226;28;20114;-73
2022/05/23 03:06:54;;;;;;;7.60;4.65;;;;;;;9.74;93.07;100092.16;5053406;28;20036;-74
2022/05/23 03:09:19;;;;;;;6.63;5.13;;;;;;;9.74;93.12;100086.47;5035269;28;20132;-73
2022/05/23 03:11:48;;;;;;;7.45;4.57;;;;;;;9.77;92.19;100089.13;5034913;28;20087;-73
2022/05/23 03:14:16;;;;;;;8.88;4.57;;;;;;;9.79;91.41;100082.97;5053343;28;20065;-73
2022/05/23 03:16:41;;;;;;;8.10;4.38;;;;;;;9.88;91.09;100095.13;5035582;28;20488;-73
2022/05/23 03:19:07;;;;;;;9.85;5.15;;;;;;;9.86;91.46;100105.41;5034799;28;20041;-73
2022/05/23 03:27:02;;;;;;;6.68;4.45;;;;;;;9.92;91.24;100112.00;5057051;28;20493;-73
2022/05/23 03:29:28;;;;;;;6.38;4.90;;;;;;;9.97;91.29;100111.34;5039070;28;20029;-73
2022/05/23 03:31:56;;;;;;;7.25;4.45;;;;;;;9.99;91.18;100114.53;5014817;28;20168;-73
2022/05/23 03:34:36;;;;;;;7.18;4.72;;;;;;;10.06;91.24;100104.88;5015685;28;20475;-72
2022/05/23 03:37:03;;;;;;;7.03;5.18;;;;;;;10.06;91.82;100108.50;5016936;28;20054;-73
2022/05/23 03:39:28;;;;;;;6.28;4.43;;;;;;;10.10;92.19;100106.25;5016895;28;20375;-72
2022/05/23 03:41:55;;;;;;;6.03;4.38;;;;;;;10.17;90.89;100114.47;4998122;28;20042;-71
2022/05/23 03:44:20;;;;;;;7.80;4.18;;;;;;;10.22;91.26;100110.97;5017075;28;20104;-73
2022/05/23 03:46:48;;;;;;;6.97;4.53;;;;;;;10.26;90.25;100114.41;5017122;28;20455;-73
2022/05/23 03:49:14;;;;;;;6.50;5.40;;;;;;;10.30;90.05;100119.97;5015700;28;20034;-74
2022/05/23 03:51:41;;;;;;;7.25;5.32;;;;;;;10.36;89.46;100120.88;5015433;28;20037;-74
2022/05/23 03:54:07;;;;;;;6.25;5.10;;;;;;;10.38;89.34;100109.78;5016541;28;20455;-72
2022/05/23 03:56:33;;;;;;;9.02;5.68;;;;;;;10.48;89.66;100119.84;5015303;28;20038;-74
2022/05/23 03:58:59;;;;;;;8.35;4.68;;;;;;;10.40;88.86;100098.72;4999113;28;20080;-73
2022/05/23 04:01:28;;;;;;;9.90;5.10;;;;;;;10.62;88.63;100129.75;5016825;28;20061;-73
2022/05/23 04:03:56;;;;;;;7.10;4.60;;;;;;;10.64;87.95;100118.66;5015238;28;20033;-73
2022/05/23 04:06:21;;;;;;;6.90;4.45;;;;;;;10.72;87.98;100123.50;5016324;28;20079;-73
2022/05/23 04:08:48;;;;;;;6.55;4.47;;;;;;;10.82;87.48;100124.22;5016698;28;20120;-74
2022/05/23 04:11:15;;;;;;;9.73;5.60;;;;;;;10.83;87.86;100117.25;4999206;28;20049;-73
2022/05/23 04:13:40;;;;;;;5.85;4.38;;;;;;;10.94;87.47;100128.91;5015306;28;20028;-73
2022/05/23 04:16:07;;;;;;;8.55;4.75;;;;;;;10.95;87.14;100130.50;5015086;28;20042;-73
2022/05/23 04:18:43;;;;;;;5.93;5.28;;;;;;;10.99;87.27;100139.63;5014817;28;20080;-73
2022/05/23 04:21:10;;;;;;;8.80;5.30;;;;;;;10.96;87.17;100137.75;5016232;28;20041;-74
2022/05/23 04:23:37;;;;;;;7.05;5.47;;;;;;;10.96;87.66;100140.59;5015017;28;20034;-73
2022/05/23 04:26:07;;;;;;;9.65;5.15;;;;;;;11.04;87.65;100143.88;5013894;28;20470;-73
2022/05/23 04:28:40;;;;;;;9.93;5.28;;;;;;;11.01;88.22;100141.97;4998734;28;20033;-73
2022/05/23 04:31:07;;;;;;;7.95;5.32;;;;;;;11.04;88.84;100147.50;5014832;28;20029;-72
2022/05/23 04:36:18;;;;;;;8.77;5.55;;;;;;;11.27;87.86;100157.31;5015121;28;20052;-72
2022/05/23 04:38:48;;;;;;;7.80;5.22;;;;;;;11.17;87.75;100135.84;4998829;28;20120;-75
2022/05/23 04:41:13;;;;;;;9.38;5.63;;;;;;;11.37;87.40;100155.94;5015835;28;20032;-73
2022/05/23 04:43:40;;;;;;;8.82;6.00;;;;;;;11.46;87.63;100158.72;5014228;28;20026;-72
2022/05/23 04:46:10;;;;;;;8.02;5.82;;;;;;;11.58;87.39;100148.31;5014745;28;20042;-74
2022/05/23 04:51:20;;;;;;;6.95;5.07;;;;;;;11.76;87.10;100145.31;5015987;28;20454;-73
2022/05/23 04:53:53;;;;;;;7.25;5.38;;;;;;;11.88;87.66;100152.00;5015643;28;20022;-74
2022/05/23 04:56:24;;;;;;;10.13;5.80;;;;;;;11.92;87.86;100149.75;5014114;28;20505;-74
2022/05/23 04:58:51;;;;;;;10.57;5.35;;;;;;;11.96;87.72;100150.34;5014304;28;20030;-73
2022/05/23 05:01:17;;;;;;;13.23;6.18;;;;;;;12.03;87.46;100147.09;4997951;28;20486;-74
2022/05/23 05:03:44;;;;;;;8.20;6.03;;;;;;;11.91;87.38;100120.41;5015219;28;20072;-73
2022/05/23 05:06:10;;;;;;;8.40;4.97;;;;;;;12.22;86.93;100150.50;5014897;28;20028;-73
2022/05/23 05:08:38;;;;;;;11.95;6.20;;;;;;;12.28;86.74;100139.97;5015141;28;20025;-73
2022/05/23 05:11:05;;;;;;;10.23;6.78;;;;;;;12.38;86.42;100150.75;5015215;28;20085;-74
2022/05/23 05:13:36;;;;;;;7.38;5.28;;;;;;;12.42;86.24;100151.38;4997447;28;20033;-74
2022/05/23 05:16:03;;;;;;;11.52;5.72;;;;;;;12.51;85.64;100147.59;4997788;28;20030;-75
2022/05/23 05:18:43;;;;;;;7.35;5.32;;;;;;;12.57;85.32;100137.03;5015026;28;20057;-73
2022/05/23 05:21:10;;;;;;;10.90;6.50;;;;;;;12.64;85.43;100150.09;5015042;28;20116;-73
2022/05/23 05:23:36;;;;;;;9.45;5.20;;;;;;;12.83;84.85;100146.50;5013397;28;20025;-75
2022/05/23 05:26:02;;;;;;;7.82;5.55;;;;;;;12.98;83.49;100146.44;4980667;28;20026;-74
2022/05/23 05:28:29;;;;;;;9.60;5.50;;;;;;;13.07;83.03;100152.03;5013666;28;20037;-74
2022/05/23 05:31:03;;;;;;;9.13;5.50;;;;;;;13.07;82.91;100142.66;5013331;28;20030;-74
2022/05/23 05:33:51;;;;;;;9.75;5.75;;;;;;;13.17;82.09;100144.88;5012970;28;20388;-74
2022/05/23 05:36:20;;;;;;;7.30;5.75;;;;;;;13.19;82.46;100148.03;5012852;28;20033;-74
2022/05/23 05:38:57;;;;;;;8.63;5.47;;;;;;;13.34;82.36;100147.97;5013429;28;20078;-73
2022/05/23 05:41:28;;;;;;;11.05;5.75;;;;;;;13.41;82.06;100156.13;5014641;28;20095;-73
2022/05/23 05:44:01;;;;;;;7.90;5.30;;;;;;;13.59;81.41;100152.94;4996819;28;20104;-74
2022/05/23 05:46:45;;;;;;;10.23;5.22;;;;;;;13.72;81.30;100147.59;5014539;28;20463;-74
2022/05/23 05:49:20;;;;;;;10.30;5.82;;;;;;;13.77;81.38;100146.09;5013263;28;20044;-74
2022/05/23 05:51:48;;;;;;;10.85;6.13;;;;;;;13.91;80.38;100145.22;4997151;28;20033;-73
2022/05/23 05:54:21;;;;;;;10.93;5.35;;;;;;;14.07;79.74;100140.91;5012966;28;20599;-75
2022/05/23 05:57:02;;;;;;;7.93;5.00;;;;;;;14.20;78.60;100141.28;4996831;28;20026;-75
2022/05/23 05:59:30;;;;;;;15.15;5.78;;;;;;;14.34;78.48;100139.56;5012958;28;20049;-73
2022/05/23 06:01:57;;;;;;;13.05;6.75;;;;;;;14.47;77.27;100123.53;4997158;28;20034;-76
2022/05/23 06:04:23;;;;;;;10.45;5.28;;;;;;;14.57;76.66;100119.19;5014165;28;20080;-76
2022/05/23 06:12:19;;;;;;;14.95;5.80;;;;;;;15.07;75.33;100121.53;5013100;28;20049;-76
2022/05/23 06:14:47;;;;;;;9.40;5.68;;;;;;;15.20;73.92;100118.19;5012521;28;20132;-77
2022/05/23 06:17:12;;;;;;;12.75;4.57;;;;;;;15.37;73.03;100121.91;5014008;28;20390;-75
2022/05/23 06:19:40;;;;;;;14.30;6.05;;;;;;;16.29;72.15;100126.75;5012184;28;20127;-76
2022/05/23 06:22:06;;;;;;;7.68;3.92;;;;;;;17.96;64.28;100108.88;5014224;28;20112;-75
2022/05/23 06:24:41;;;;;;;14.15;4.55;;;;;;;19.83;58.00;100097.91;5012617;28;20037;-75
2022/05/23 06:27:08;;;;;;;16.35;4.32;;;;;;;21.63;52.66;100093.97;5012734;28;20028;-76
2022/05/23 06:29:34;;;;;;;5.57;4.15;;;;;;;23.17;44.17;100088.41;4980025;28;20030;-76
2022/05/23 06:32:02;;;;;;;6.72;3.38;;;;;;;24.62;40.24;100091.75;5017562;28;20030;-77
2022/05/23 06:34:28;;;;;;;4.20;3.70;;;;;;;25.65;37.62;100095.63;5053392;28;20039;-75
2022/05/23 06:36:55;;;;;;;5.55;3.60;;;;;;;26.44;33.90;100088.94;5036150;28;20132;-77
2022/05/23 06:39:20;;;;;;;10.43;4.13;;;;;;;27.31;31.65;100095.72;5019315;28;20033;-77
2022/05/23 06:41:47;;;;;;;6.25;4.07;;;;;;;28.24;31.16;100101.34;5018902;28;20071;-77
2022/05/23 06:44:22;;;;;;;4.78;2.97;;;;;;;29.00;27.56;100102.28;5035663;28;20048;-75
2022/05/23 06:46:48;;;;;;;3.60;2.90;;;;;;;29.14;27.58;100092.41;5053303;28;20082;-76
2022/05/23 06:49:15;;;;;;;4.20;3.03;;;;;;;29.00;27.35;100096.41;5035759;28;20029;-77
2022/05/23 06:51:41;;;;;;;5.15;2.47;;;;;;;30.06;28.35;100099.34;5052489;28;20041;-76
2022/05/23 06:54:08;;;;;;;4.25;3.15;;;;;;;30.30;26.40;100089.38;5019493;28;20029;-76
2022/05/23 06:56:35;;;;;;;6.80;2.95;;;;;;;31.02;25.37;100093.88;5036546;28;20473;-78
2022/05/23 06:59:03;;;;;;;3.50;2.70;;;;;;;31.09;24.81;100092.09;5022571;28;20028;-77
2022/05/23 07:01:29;;;;;;;6.15;3.03;;;;;;;30.75;24.32;100091.19;5057158;28;20489;-76
2022/05/23 07:03:55;;;;;;;4.10;2.40;;;;;;;31.57;23.60;100071.94;5022365;28;20450;-76
2022/05/23 07:14:36;;;;;;;4.18;2.55;;;;;;;33.04;21.58;100056.34;5062867;28;20162;-75
2022/05/23 07:17:02;;;;;;;8.73;2.65;;;;;;;32.92;22.90;100043.75;5064624;28;20032;-77
2022/05/23 07:19:29;;;;;;;4.43;2.45;;;;;;;33.46;22.19;100042.59;5043444;28;20112;-78
2022/05/23 07:21:59;;;;;;;4.85;2.60;;;;;;;33.54;20.11;100046.81;5054390;28;20045;-76
2022/05/23 07:24:31;;;;;;;5.95;2.38;;;;;;;33.07;19.63;100051.31;5038702;28;20025;-77
2022/05/23 07:27:01;;;;;;;6.85;3.05;;;;;;;32.48;21.68;100047.63;5057025;28;20055;-78
2022/05/23 07:29:28;;;;;;;7.15;2.55;;;;;;;32.76;21.29;100037.63;5022537;28;20052;-77
2022/05/23 07:31:57;;;;;;;3.65;2.00;;;;;;;33.36;19.84;100037.63;5038284;28;20547;-77
2022/05/23 07:34:29;;;;;;;3.45;2.20;;;;;;;33.57;20.31;100027.00;5056715;28;20036;-76
2022/05/23 07:36:56;;;;;;;2.20;1.80;;;;;;;33.60;20.20;100037.53;5022289;28;20033;-77
2022/05/23 07:39:24;;;;;;;5.43;2.17;;;;;;;33.94;18.93;100024.00;5056587;28;20071;-76
2022/05/23 07:41:50;;;;;;;3.55;2.50;;;;;;;34.31;19.41;100029.81;5056909;28;20051;-76
2022/05/23 07:44:16;;;;;;;5.93;4.70;;;;;;;34.73;18.60;100026.25;5022195;28;20025;-77
2022/05/23 07:46:56;;;;;;;2.03;1.70;;;;;;;35.13;18.06;100023.91;5056926;28;20041;-76
2022/05/23 07:49:24;;;;;;;3.60;2.30;;;;;;;34.98;18.59;100026.09;5056430;28;20075;-76
2022/05/23 07:51:49;;;;;;;3.72;2.03;;;;;;;34.28;18.32;100016.34;5022369;28;20032;-76
2022/05/23 08:02:28;;;;;;;2.13;1.83;;;;;;;34.97;18.47;100023.81;5056242;28;20497;-77
2022/05/23 08:04:55;;;;;;;3.60;2.00;;;;;;;34.32;19.57;100023.25;5056233;28;20033;-75
2022/05/23 08:07:21;;;;;;;2.53;1.80;;;;;;;34.46;20.20;100017.31;5021549;28;20025;-77
2022/05/23 08:09:47;;;;;;;2.83;1.60;;;;;;;34.69;18.32;100011.22;5056414;28;20028;-76
2022/05/23 08:12:14;;;;;;;3.55;1.73;;;;;;;34.65;18.70;100005.81;5038032;28;20505;-76
2022/05/23 08:14:41;;;;;;;4.07;2.08;;;;;;;34.27;19.36;99997.81;5038492;28;20111;-77
2022/05/23 08:17:08;;;;;;;2.80;1.60;;;;;;;34.23;17.60;100007.22;5038097;28;20116;-77
2022/05/23 08:19:36;;;;;;;2.85;1.52;;;;;;;33.99;18.06;100013.94;5021523;28;20029;-76
2022/05/23 08:22:03;;;;;;;1.92;1.45;;;;;;;34.43;18.51;99997.94;5021259;28;20143;-76
2022/05/23 08:24:29;;;;;;;2.22;1.60;;;;;;;34.06;19.33;100001.78;5037967;28;20044;-76
2022/05/23 08:26:55;;;;;;;3.47;2.00;;;;;;;34.02;17.92;100003.75;5037659;28;20078;-76
2022/05/23 08:29:23;;;;;;;2.67;1.55;;;;;;;34.03;17.89;99990.50;5037640;28;20051;-76
2022/05/23 08:31:50;;;;;;;1.92;1.50;;;;;;;34.04;19.34;100003.88;5020649;28;20067;-75
2022/05/23 08:34:24;;;;;;;3.13;1.98;;;;;;;33.71;18.25;100005.00;5037924;28;20029;-76
2022/05/23 08:36:52;;;;;;;2.60;1.50;;;;;;;33.86;19.41;100000.66;5055586;28;20028;-75
2022/05/23 08:39:26;;;;;;;1.73;1.15;;;;;;;33.47;19.45;99996.88;5055076;28;20048;-74
2022/05/23 08:41:52;;;;;;;2.95;1.58;;;;;;;33.15;19.34;100004.56;5055462;28;20433;-75
2022/05/23 08:44:25;;;;;;;4.20;1.55;;;;;;;32.89;19.30;99994.88;5020885;28;20040;-77
2022/05/23 08:47:20;;;;;;;2.42;1.17;;;;;;;32.70;19.30;99995.19;5055542;28;20099;-76
2022/05/23 08:49:58;;;;;;;4.95;1.95;;;;;;;32.65;18.85;99991.22;5055187;28;20064;-75
2022/05/23 08:52:37;;;;;;;1.67;1.10;;;;;;;32.32;20.35;99985.44;5055545;28;20033;-76
2022/05/23 08:55:18;;;;;;;3.40;1.67;;;;;;;32.05;20.40;99991.84;5038078;28;20025;-77
2022/05/23 08:57:51;;;;;;;3.47;1.52;;;;;;;31.33;19.65;99996.59;5055897;28;20473;-76
2022/05/23 09:00:35;;;;;;;1.95;1.30;;;;;;;31.43;20.28;99981.81;5055475;28;20025;-77
2022/05/23 09:03:41;;;;;;;1.70;1.25;;;;;;;31.43;19.81;99981.81;5037554;28;20033;-77
2022/05/23 09:06:26;;;;;;;2.83;1.50;;;;;;;31.69;19.67;99963.72;5037457;28;20025;-77
2022/05/23 09:08:52;;;;;;;3.22;1.35;;;;;;;31.72;20.69;99973.47;5055326;28;20041;-77
2022/05/23 09:11:39;;;;;;;4.53;1.08;;;;;;;31.54;20.35;99966.34;5037854;28;20030;-76
2022/05/23 09:14:07;;;;;;;5.63;1.42;;;;;;;31.44;20.39;99962.72;5037003;28;20029;-75
2022/05/23 09:16:40;;;;;;;8.27;1.85;;;;;;;31.45;21.10;99956.22;5036931;28;20039;-76
2022/05/23 09:19:37;;;;;;;4.88;2.30;;;;;;;31.34;20.70;99953.22;5021038;28;20040;-77
2022/05/23 09:22:17;;;;;;;1.52;1.10;;;;;;;30.70;19.68;99956.22;5054496;28;20032;-76
2022/05/23 09:24:53;;;;;;;3.78;1.20;;;;;;;29.95;21.17;99948.75;5037177;28;20025;-76
2022/05/23 09:27:24;;;;;;;0.82;0.77;;;;;;;30.02;21.23;99949.97;5037190;28;20028;-77
2022/05/23 09:29:54;;;;;;;1.95;1.27;;;;;;;29.77;21.71;99938.59;5036622;28;20489;-76
2022/05/23 09:32:25;;;;;;;1.50;1.13;;;;;;;29.22;23.57;99930.06;4995750;28;20054;-75
2022/05/23 09:35:04;;;;;;;6.47;1.50;;;;;;;29.02;22.28;99929.31;4997199;28;20034;-76
2022/05/23 09:37:39;;;;;;;2.40;1.40;;;;;;;29.02;23.66;99938.91;5013690;28;20044;-75
2022/05/23 09:40:09;;;;;;;2.33;0.90;;;;;;;28.88;22.42;99931.97;5013647;28;20058;-76
2022/05/23 09:48:13;;;;;;;3.00;1.15;;;;;;;27.58;22.66;99934.84;5020238;28;20435;-77
2022/05/23 09:50:43;;;;;;;28.85;4.05;;;;;;;27.36;23.61;99925.75;4997287;28;20479;-74
2022/05/23 09:53:24;;;;;;;4.37;1.23;;;;;;;26.90;24.44;99934.34;4997134;28;20473;-76
2022/05/23 09:55:51;;;;;;;2.60;1.30;;;;;;;26.83;25.03;99917.66;4996762;28;20285;-76
2022/05/23 09:58:35;;;;;;;3.45;1.10;;;;;;;26.61;24.44;99907.78;5013123;28;20092;-76
2022/05/23 10:01:10;;;;;;;1.60;0.80;;;;;;;26.46;24.92;99910.09;5012983;28;20036;-75
2022/05/23 10:03:48;;;;;;;6.10;1.17;;;;;;;26.31;25.54;99911.03;4997398;28;20534;-76
2022/05/23 10:06:40;;;;;;;22.13;2.75;;;;;;;25.94;26.00;99906.31;4980522;28;20121;-75
2022/05/23 10:09:22;;;;;;;4.22;1.25;;;;;;;25.50;26.43;99906.84;5013188;28;20034;-75
2022/05/23 10:11:55;;;;;;;8.55;1.40;;;;;;;25.28;26.60;99867.69;5012886;28;20044;-75
2022/05/23 10:14:23;;;;;;;6.63;1.70;;;;;;;25.37;28.84;99892.50;5014189;28;20033;-77
2022/05/23 10:17:03;;;;;;;5.75;1.45;;;;;;;25.47;29.11;99896.34;5012549;28;20382;-75
2022/05/23 10:19:35;;;;;;;2.97;1.55;;;;;;;25.52;27.01;99909.91;5012977;28;20034;-74
2022/05/23 10:22:22;;;;;;;3.58;1.15;;;;;;;24.98;27.81;99902.06;5012945;28;20037;-76
2022/05/23 10:25:06;;;;;;;1.20;0.85;;;;;;;24.65;26.61;99890.34;4998324;28;20034;-78
2022/05/23 10:27:50;;;;;;;3.92;1.23;;;;;;;24.28;27.32;99891.22;5012515;28;20125;-76
2022/05/23 10:30:18;;;;;;;1.25;0.98;;;;;;;24.26;28.63;99885.22;4996040;28;20112;-76
2022/05/23 10:32:52;;;;;;;5.55;1.27;;;;;;;24.41;28.14;99891.78;4995937;28;20046;-76
2022/05/23 10:35:23;;;;;;;2.67;1.10;;;;;;;24.34;27.68;99883.06;4996369;28;20033;-77
2022/05/23 10:37:52;;;;;;;4.25;1.88;;;;;;;24.07;28.48;99882.72;5012433;28;20406;-76
2022/05/23 10:43:20;;;;;;;2.47;0.73;;;;;;;23.77;29.75;99868.19;5012812;28;20056;-76
2022/05/23 10:45:59;;;;;;;1.55;0.98;;;;;;;23.71;31.15;99859.66;4995863;28;20060;-76
2022/05/23 10:48:43;;;;;;;1.20;0.70;;;;;;;23.63;28.69;99867.63;5012325;28;20038;-75
2022/05/23 10:51:36;;;;;;;1.63;0.95;;;;;;;23.42;28.91;99870.69;5013796;28;20060;-76
2022/05/23 10:54:41;;;;;;;3.13;0.98;;;;;;;23.17;30.24;99855.13;5012292;28;20026;-75
2022/05/23 10:57:12;;;;;;;7.38;1.35;;;;;;;22.93;29.73;99850.63;5012511;28;20379;-75
2022/05/23 10:59:58;;;;;;;1.85;0.77;;;;;;;22.60;31.11;99840.78;5013651;28;20044;-76
2022/05/23 11:02:50;;;;;;;1.48;1.00;;;;;;;22.38;32.15;99847.28;5013402;28;20113;-75
2022/05/23 11:05:48;;;;;;;1.15;1.05;;;;;;;22.63;32.83;99838.88;5012129;28;20100;-75
2022/05/23 11:08:29;;;;;;;3.30;1.10;;;;;;;22.69;30.84;99848.97;4982433;28;20504;-76
2022/05/23 11:11:14;;;;;;;2.03;0.80;;;;;;;22.79;31.28;99841.28;5013538;28;20033;-78
2022/05/23 11:14:00;;;;;;;3.20;1.10;;;;;;;22.70;30.68;99820.69;5012236;28;20447;-75
2022/05/23 11:16:56;;;;;;;4.82;1.58;;;;;;;22.98;30.25;99840.97;5013142;28;20468;-76
2022/05/23 11:19:32;;;;;;;1.98;1.20;;;;;;;22.93;31.06;99833.19;5013339;28;20029;-74
2022/05/23 11:22:14;;;;;;;1.92;1.00;;;;;;;23.12;30.23;99833.63;5012268;28;20064;-77
2022/05/23 11:25:03;;;;;;;3.90;1.20;;;;;;;23.21;30.44;99827.25;5013364;28;20065;-77
2022/05/23 11:35:52;;;;;;;1.98;1.00;;;;;;;23.46;30.78;99812.94;5012652;28;20531;-75
2022/05/23 11:38:18;;;;;;;2.45;0.90;;;;;;;23.27;28.33;99824.16;4995802;28;20495;-75
2022/05/23 11:41:00;;;;;;;3.38;0.90;;;;;;;23.18;28.73;99828.41;5012133;28;20116;-75
2022/05/23 11:43:27;;;;;;;5.25;0.93;;;;;;;22.89;29.34;99808.78;5015440;28;20463;-76
2022/05/23 11:46:10;;;;;;;1.90;1.10;;;;;;;22.94;30.85;99788.25;4983303;28;20033;-77
2022/05/23 11:48:41;;;;;;;2.30;0.90;;;;;;;23.29;30.66;99809.78;4999161;28;20037;-77
2022/05/23 11:51:22;;;;;;;1.42;1.30;;;;;;;23.38;31.03;99811.38;5016926;28;20029;-76
2022/05/23 11:53:56;;;;;;;1.77;0.90;;;;;;;23.56;30.19;99807.31;5016612;28;20030;-76
2022/05/23 11:57:08;;;;;;;2.90;1.20;;;;;;;23.53;29.81;99802.66;5015304;28;20479;-76
2022/05/23 11:59:36;;;;;;;;;;;;;;;23.51;29.69;99800.34;4940223;29;20057;-76
2022/05/23 12:02:07;;;;;;;2.90;1.35;;;;;;;23.38;28.95;99799.72;4956374;29;20360;-77
2022/05/23 12:04:59;;;;;;;4.53;1.55;;;;;;;23.25;29.70;99792.75;4956154;29;20114;-75
2022/05/23 12:07:44;;;;;;;1.20;1.10;;;;;;;23.39;28.70;99790.41;4928673;29;20039;-75
2022/05/23 12:10:25;;;;;;;3.10;1.25;;;;;;;23.59;29.32;99779.97;4955772;29;20115;-75
2022/05/23 12:13:14;;;;;;;3.58;1.45;;;;;;;23.55;29.01;99773.78;4955725;29;20127;-75
2022/05/23 12:15:49;;;;;;;4.75;0.80;;;;;;;23.62;28.94;99775.91;5016007;28;20493;-75
2022/05/23 12:18:25;;;;;;;10.35;2.95;;;;;;;23.58;28.50;99773.38;5014984;28;20379;-75
2022/05/23 12:21:02;;;;;;;1.48;1.00;;;;;;;23.46;28.16;99772.22;5014729;28;20041;-76
2022/05/23 12:23:42;;;;;;;6.03;0.95;;;;;;;23.18;28.37;99764.47;5014769;28;20422;-76
2022/05/23 12:26:10;;;;;;;2.15;0.80;;;;;;;23.26;28.79;99749.94;5015791;28;20056;-75
2022/05/23 12:28:49;;;;;;;1.40;0.98;;;;;;;23.33;29.76;99762.91;5015981;28;20038;-75
2022/05/23 12:31:23;;;;;;;3.63;2.45;;;;;;;23.34;28.17;99744.09;5016224;28;20483;-76
2022/05/23 12:34:08;;;;;;;2.50;0.80;;;;;;;23.45;28.54;99750.31;5048459;28;20052;-75
2022/05/23 12:36:38;;;;;;;7.63;1.90;;;;;;;23.64;28.10;99744.09;5021842;28;20037;-74
2022/05/23 12:39:36;;;;;;;2.90;1.13;;;;;;;23.73;27.26;99749.28;5055629;28;20033;-75
2022/05/23 12:42:06;;;;;;;2.05;1.50;;;;;;;23.68;28.67;99738.69;5055275;28;20029;-75
2022/05/23 12:45:08;;;;;;;2.03;1.20;;;;;;;23.93;28.29;99721.31;5055820;28;20068;-75
2022/05/23 12:47:59;;;;;;;2.03;0.90;;;;;;;24.18;29.24;99716.38;5037683;28;20048;-75
2022/05/23 12:51:02;;;;;;;1.92;0.80;;;;;;;24.18;27.60;99713.47;5020904;28;20374;-76
2022/05/23 12:53:44;;;;;;;2.20;1.05;;;;;;;24.06;27.02;99707.31;5037511;28;20033;-76